sensor_id;sensor_type;location;lat;lon;timestamp;temperature;humidity
4520;DHT22;2272;49.226;8.108;2022-10-31T00:01:18;12.90;99.90
4520;DHT22;2272;49.226;8.108;2022-10-31T00:03:46;12.90;99.90
4520;DHT22;2272;49.226;8.108;2022-10-31T00:06:13;13.10;99.90
4520;DHT22;2272;49.226;8.108;2022-10-31T00:08:39;13.10;99.90
4520;DHT22;2272;49.226;8.108;2022-10-31T00:11:10;13.20;99.90
4520;DHT22;2272;49.226;8.108;2022-10-31T00:13:36;13.30;99.90
4520;DHT22;2272;49.226;8.108;2022-10-31T00:16:04;13.40;99.90
4520;DHT22;2272;49.226;8.108;2022-10-31T00:18:30;13.40;99.90
4520;DHT22;2272;49.226;8.108;2022-10-31T00:21:01;13.30;99.90
4520;DHT22;2272;49.226;8.108;2022-10-31T00:23:28;13.10;99.90
4520;DHT22;2272;49.226;8.108;2022-10-31T00:26:00;13.00;99.90
4520;DHT22;2272;49.226;8.108;2022-10-31T00:28:28;12.90;99.90
4520;DHT22;2272;49.226;8.108;2022-10-31T00:30:58;12.80;99.90
4520;DHT22;2272;49.226;8.108;2022-10-31T00:33:25;12.80;99.90
4520;DHT22;2272;49.226;8.108;2022-10-31T00:35:52;12.70;99.90
4520;DHT22;2272;49.226;8.108;2022-10-31T00:38:18;12.80;99.90
4520;DHT22;2272;49.226;8.108;2022-10-31T00:40:45;12.80;99.90
4520;DHT22;2272;49.226;8.108;2022-10-31T00:43:12;12.80;99.90
4520;DHT22;2272;49.226;8.108;2022-10-31T00:45:40;12.80;99.90
4520;DHT22;2272;49.226;8.108;2022-10-31T00:48:07;12.90;99.90
4520;DHT22;2272;49.226;8.108;2022-10-31T00:50:34;13.00;99.90
4520;DHT22;2272;49.226;8.108;2022-10-31T00:53:01;13.00;99.90
4520;DHT22;2272;49.226;8.108;2022-10-31T00:55:28;13.00;99.90
4520;DHT22;2272;49.226;8.108;2022-10-31T00:57:55;13.00;99.90
4520;DHT22;2272;49.226;8.108;2022-10-31T01:00:22;13.00;99.90
4520;DHT22;2272;49.226;8.108;2022-10-31T01:02:50;13.00;99.90
4520;DHT22;2272;49.226;8.108;2022-10-31T01:05:17;13.10;99.90
4520;DHT22;2272;49.226;8.108;2022-10-31T01:07:43;13.10;99.90
4520;DHT22;2272;49.226;8.108;2022-10-31T01:10:11;13.20;99.90
4520;DHT22;2272;49.226;8.108;2022-10-31T01:12:38;13.20;99.90
4520;DHT22;2272;49.226;8.108;2022-10-31T01:15:06;13.10;99.90
4520;DHT22;2272;49.226;8.108;2022-10-31T01:17:33;13.00;99.90
4520;DHT22;2272;49.226;8.108;2022-10-31T01:20:02;13.00;99.90
4520;DHT22;2272;49.226;8.108;2022-10-31T01:22:29;12.90;99.90
4520;DHT22;2272;49.226;8.108;2022-10-31T01:24:55;12.90;99.90
4520;DHT22;2272;49.226;8.108;2022-10-31T01:27:22;12.80;99.90
4520;DHT22;2272;49.226;8.108;2022-10-31T01:29:49;12.90;99.90
4520;DHT22;2272;49.226;8.108;2022-10-31T01:32:16;12.90;99.90
4520;DHT22;2272;49.226;8.108;2022-10-31T01:34:42;12.90;99.90
4520;DHT22;2272;49.226;8.108;2022-10-31T01:37:10;12.80;99.90
4520;DHT22;2272;49.226;8.108;2022-10-31T01:39:37;12.80;99.90
4520;DHT22;2272;49.226;8.108;2022-10-31T01:42:04;12.90;99.90
4520;DHT22;2272;49.226;8.108;2022-10-31T01:44:55;12.90;99.90
4520;DHT22;2272;49.226;8.108;2022-10-31T01:47:32;13.00;99.90
4520;DHT22;2272;49.226;8.108;2022-10-31T01:50:02;13.00;99.90
4520;DHT22;2272;49.226;8.108;2022-10-31T01:52:35;13.00;99.90
4520;DHT22;2272;49.226;8.108;2022-10-31T01:55:05;12.80;99.90
4520;DHT22;2272;49.226;8.108;2022-10-31T01:57:35;12.70;99.90
4520;DHT22;2272;49.226;8.108;2022-10-31T02:00:06;12.50;99.90
4520;DHT22;2272;49.226;8.108;2022-10-31T02:02:33;12.30;99.90
4520;DHT22;2272;49.226;8.108;2022-10-31T02:05:02;12.10;99.90
4520;DHT22;2272;49.226;8.108;2022-10-31T02:07:36;11.90;99.90
4520;DHT22;2272;49.226;8.108;2022-10-31T02:10:05;11.90;99.90
4520;DHT22;2272;49.226;8.108;2022-10-31T02:12:32;11.80;99.90
4520;DHT22;2272;49.226;8.108;2022-10-31T02:15:01;11.70;99.90
4520;DHT22;2272;49.226;8.108;2022-10-31T02:17:29;11.70;99.90
4520;DHT22;2272;49.226;8.108;2022-10-31T02:20:01;11.70;99.90
4520;DHT22;2272;49.226;8.108;2022-10-31T02:22:40;11.70;99.90
4520;DHT22;2272;49.226;8.108;2022-10-31T02:25:34;11.70;99.90
4520;DHT22;2272;49.226;8.108;2022-10-31T02:28:25;11.60;99.90
4520;DHT22;2272;49.226;8.108;2022-10-31T02:31:12;11.50;99.90
4520;DHT22;2272;49.226;8.108;2022-10-31T02:33:45;11.40;99.90
4520;DHT22;2272;49.226;8.108;2022-10-31T02:36:20;11.30;99.90
4520;DHT22;2272;49.226;8.108;2022-10-31T02:38:54;11.30;99.90
4520;DHT22;2272;49.226;8.108;2022-10-31T02:41:30;11.20;99.90
4520;DHT22;2272;49.226;8.108;2022-10-31T02:44:05;11.10;99.90
4520;DHT22;2272;49.226;8.108;2022-10-31T02:46:39;11.00;99.90
4520;DHT22;2272;49.226;8.108;2022-10-31T02:49:15;11.00;99.90
4520;DHT22;2272;49.226;8.108;2022-10-31T02:51:45;11.00;99.90
4520;DHT22;2272;49.226;8.108;2022-10-31T02:54:18;10.90;99.90
4520;DHT22;2272;49.226;8.108;2022-10-31T02:56:46;10.90;99.90
4520;DHT22;2272;49.226;8.108;2022-10-31T02:59:13;10.90;99.90
4520;DHT22;2272;49.226;8.108;2022-10-31T03:02:03;10.90;99.90
4520;DHT22;2272;49.226;8.108;2022-10-31T03:04:52;10.80;99.90
4520;DHT22;2272;49.226;8.108;2022-10-31T03:07:26;10.80;99.90
4520;DHT22;2272;49.226;8.108;2022-10-31T03:10:03;10.80;99.90
4520;DHT22;2272;49.226;8.108;2022-10-31T03:12:36;10.90;99.90
4520;DHT22;2272;49.226;8.108;2022-10-31T03:15:12;10.90;99.90
4520;DHT22;2272;49.226;8.108;2022-10-31T03:17:48;11.00;99.90
4520;DHT22;2272;49.226;8.108;2022-10-31T03:20:19;11.00;99.90
4520;DHT22;2272;49.226;8.108;2022-10-31T03:22:47;11.00;99.90
4520;DHT22;2272;49.226;8.108;2022-10-31T03:25:14;11.10;99.90
4520;DHT22;2272;49.226;8.108;2022-10-31T03:27:43;11.10;99.90
4520;DHT22;2272;49.226;8.108;2022-10-31T03:30:11;11.20;99.90
4520;DHT22;2272;49.226;8.108;2022-10-31T03:32:42;11.30;99.90
4520;DHT22;2272;49.226;8.108;2022-10-31T03:35:13;11.30;99.90
4520;DHT22;2272;49.226;8.108;2022-10-31T03:37:40;11.40;99.90
4520;DHT22;2272;49.226;8.108;2022-10-31T03:40:09;11.40;99.90
4520;DHT22;2272;49.226;8.108;2022-10-31T03:42:40;11.40;99.90
4520;DHT22;2272;49.226;8.108;2022-10-31T03:45:11;11.40;99.90
4520;DHT22;2272;49.226;8.108;2022-10-31T03:47:39;11.30;99.90
4520;DHT22;2272;49.226;8.108;2022-10-31T03:50:08;11.20;99.90
4520;DHT22;2272;49.226;8.108;2022-10-31T03:52:41;11.20;99.90
4520;DHT22;2272;49.226;8.108;2022-10-31T03:55:13;11.10;99.90
4520;DHT22;2272;49.226;8.108;2022-10-31T03:57:46;11.00;99.90
4520;DHT22;2272;49.226;8.108;2022-10-31T04:00:16;11.00;99.90
4520;DHT22;2272;49.226;8.108;2022-10-31T04:02:47;11.00;99.90
4520;DHT22;2272;49.226;8.108;2022-10-31T04:05:17;11.00;99.90
4520;DHT22;2272;49.226;8.108;2022-10-31T04:07:47;10.90;99.90
4520;DHT22;2272;49.226;8.108;2022-10-31T04:10:17;10.80;99.90
4520;DHT22;2272;49.226;8.108;2022-10-31T04:12:48;10.70;99.90
4520;DHT22;2272;49.226;8.108;2022-10-31T04:15:17;10.60;99.90
4520;DHT22;2272;49.226;8.108;2022-10-31T04:17:47;10.40;99.90
4520;DHT22;2272;49.226;8.108;2022-10-31T04:20:17;10.30;99.90
4520;DHT22;2272;49.226;8.108;2022-10-31T04:22:44;10.30;99.90
4520;DHT22;2272;49.226;8.108;2022-10-31T04:25:11;10.30;99.90
4520;DHT22;2272;49.226;8.108;2022-10-31T04:27:38;10.20;99.90
4520;DHT22;2272;49.226;8.108;2022-10-31T04:30:06;10.20;99.90
4520;DHT22;2272;49.226;8.108;2022-10-31T04:32:32;10.10;99.90
4520;DHT22;2272;49.226;8.108;2022-10-31T04:34:59;10.10;99.90
4520;DHT22;2272;49.226;8.108;2022-10-31T04:37:27;10.00;99.90
4520;DHT22;2272;49.226;8.108;2022-10-31T04:39:54;10.00;99.90
4520;DHT22;2272;49.226;8.108;2022-10-31T04:42:21;10.00;99.90
4520;DHT22;2272;49.226;8.108;2022-10-31T04:44:47;10.00;99.90
4520;DHT22;2272;49.226;8.108;2022-10-31T04:47:14;10.00;99.90
4520;DHT22;2272;49.226;8.108;2022-10-31T04:49:41;10.00;99.90
4520;DHT22;2272;49.226;8.108;2022-10-31T04:52:07;10.00;99.90
4520;DHT22;2272;49.226;8.108;2022-10-31T04:54:35;10.10;99.90
4520;DHT22;2272;49.226;8.108;2022-10-31T04:57:02;10.10;99.90
4520;DHT22;2272;49.226;8.108;2022-10-31T04:59:29;10.20;99.90
4520;DHT22;2272;49.226;8.108;2022-10-31T05:01:55;10.20;99.90
4520;DHT22;2272;49.226;8.108;2022-10-31T05:04:22;10.30;99.90
4520;DHT22;2272;49.226;8.108;2022-10-31T05:06:49;10.30;99.90
4520;DHT22;2272;49.226;8.108;2022-10-31T05:09:16;10.30;99.90
4520;DHT22;2272;49.226;8.108;2022-10-31T05:11:44;10.30;99.90
4520;DHT22;2272;49.226;8.108;2022-10-31T05:14:10;10.30;99.90
4520;DHT22;2272;49.226;8.108;2022-10-31T05:16:37;10.30;99.90
4520;DHT22;2272;49.226;8.108;2022-10-31T05:19:04;10.30;99.90
4520;DHT22;2272;49.226;8.108;2022-10-31T05:21:30;10.30;99.90
4520;DHT22;2272;49.226;8.108;2022-10-31T05:23:57;10.30;99.90
4520;DHT22;2272;49.226;8.108;2022-10-31T05:26:24;10.30;99.90
4520;DHT22;2272;49.226;8.108;2022-10-31T05:28:52;10.40;99.90
4520;DHT22;2272;49.226;8.108;2022-10-31T05:31:19;10.40;99.90
4520;DHT22;2272;49.226;8.108;2022-10-31T05:33:45;10.50;99.90
4520;DHT22;2272;49.226;8.108;2022-10-31T05:36:12;10.60;99.90
4520;DHT22;2272;49.226;8.108;2022-10-31T05:38:39;10.60;99.90
4520;DHT22;2272;49.226;8.108;2022-10-31T05:41:05;10.70;99.90
4520;DHT22;2272;49.226;8.108;2022-10-31T05:43:32;10.70;99.90
4520;DHT22;2272;49.226;8.108;2022-10-31T05:46:00;10.70;99.90
4520;DHT22;2272;49.226;8.108;2022-10-31T05:48:27;10.70;99.90
4520;DHT22;2272;49.226;8.108;2022-10-31T05:50:54;10.70;99.90
4520;DHT22;2272;49.226;8.108;2022-10-31T05:53:20;10.70;99.90
4520;DHT22;2272;49.226;8.108;2022-10-31T05:55:47;10.70;99.90
4520;DHT22;2272;49.226;8.108;2022-10-31T05:58:14;10.70;99.90
4520;DHT22;2272;49.226;8.108;2022-10-31T06:00:40;10.80;99.90
4520;DHT22;2272;49.226;8.108;2022-10-31T06:03:09;10.90;99.90
4520;DHT22;2272;49.226;8.108;2022-10-31T06:05:36;11.00;99.90
4520;DHT22;2272;49.226;8.108;2022-10-31T06:08:02;11.10;99.90
4520;DHT22;2272;49.226;8.108;2022-10-31T06:10:29;11.20;99.90
4520;DHT22;2272;49.226;8.108;2022-10-31T06:12:56;11.40;99.90
4520;DHT22;2272;49.226;8.108;2022-10-31T06:15:23;11.40;99.90
4520;DHT22;2272;49.226;8.108;2022-10-31T06:18:00;11.50;99.90
4520;DHT22;2272;49.226;8.108;2022-10-31T06:20:29;11.50;99.90
4520;DHT22;2272;49.226;8.108;2022-10-31T06:22:56;11.50;99.90
4520;DHT22;2272;49.226;8.108;2022-10-31T06:25:22;11.40;99.90
4520;DHT22;2272;49.226;8.108;2022-10-31T06:27:49;11.40;99.90
4520;DHT22;2272;49.226;8.108;2022-10-31T06:30:16;11.40;99.90
4520;DHT22;2272;49.226;8.108;2022-10-31T06:32:43;11.40;99.90
4520;DHT22;2272;49.226;8.108;2022-10-31T06:35:09;11.40;99.90
4520;DHT22;2272;49.226;8.108;2022-10-31T06:37:37;11.40;99.90
4520;DHT22;2272;49.226;8.108;2022-10-31T06:40:05;11.50;99.90
4520;DHT22;2272;49.226;8.108;2022-10-31T06:42:32;11.50;99.90
4520;DHT22;2272;49.226;8.108;2022-10-31T06:44:59;11.50;99.90
4520;DHT22;2272;49.226;8.108;2022-10-31T06:47:25;11.50;99.90
4520;DHT22;2272;49.226;8.108;2022-10-31T06:49:52;11.50;99.90
4520;DHT22;2272;49.226;8.108;2022-10-31T06:52:19;11.50;99.90
4520;DHT22;2272;49.226;8.108;2022-10-31T06:54:47;11.50;99.90
4520;DHT22;2272;49.226;8.108;2022-10-31T06:57:14;11.40;99.90
4520;DHT22;2272;49.226;8.108;2022-10-31T06:59:40;11.40;99.90
4520;DHT22;2272;49.226;8.108;2022-10-31T07:02:09;11.40;99.90
4520;DHT22;2272;49.226;8.108;2022-10-31T07:04:36;11.40;99.90
4520;DHT22;2272;49.226;8.108;2022-10-31T07:07:03;11.50;99.90
4520;DHT22;2272;49.226;8.108;2022-10-31T07:09:29;11.50;99.90
4520;DHT22;2272;49.226;8.108;2022-10-31T07:11:58;11.50;99.90
4520;DHT22;2272;49.226;8.108;2022-10-31T07:14:24;11.60;99.90
4520;DHT22;2272;49.226;8.108;2022-10-31T07:16:51;11.70;99.90
4520;DHT22;2272;49.226;8.108;2022-10-31T07:19:18;11.80;99.90
4520;DHT22;2272;49.226;8.108;2022-10-31T07:21:45;11.80;99.90
4520;DHT22;2272;49.226;8.108;2022-10-31T07:24:11;11.90;99.90
4520;DHT22;2272;49.226;8.108;2022-10-31T07:26:38;11.90;99.90
4520;DHT22;2272;49.226;8.108;2022-10-31T07:29:06;11.90;99.90
4520;DHT22;2272;49.226;8.108;2022-10-31T07:31:33;12.00;99.90
4520;DHT22;2272;49.226;8.108;2022-10-31T07:34:00;12.00;99.90
4520;DHT22;2272;49.226;8.108;2022-10-31T07:36:26;12.00;99.90
4520;DHT22;2272;49.226;8.108;2022-10-31T07:38:54;12.00;99.90
4520;DHT22;2272;49.226;8.108;2022-10-31T07:41:21;12.00;99.90
4520;DHT22;2272;49.226;8.108;2022-10-31T07:43:48;12.10;99.90
4520;DHT22;2272;49.226;8.108;2022-10-31T07:46:16;12.30;99.90
4520;DHT22;2272;49.226;8.108;2022-10-31T07:48:42;12.30;99.90
4520;DHT22;2272;49.226;8.108;2022-10-31T07:51:09;12.40;99.90
4520;DHT22;2272;49.226;8.108;2022-10-31T07:53:36;12.50;99.90
4520;DHT22;2272;49.226;8.108;2022-10-31T07:56:03;12.60;99.90
4520;DHT22;2272;49.226;8.108;2022-10-31T07:58:30;12.70;99.90
4520;DHT22;2272;49.226;8.108;2022-10-31T08:00:57;12.80;99.90
4520;DHT22;2272;49.226;8.108;2022-10-31T08:03:25;12.90;99.90
4520;DHT22;2272;49.226;8.108;2022-10-31T08:05:52;13.10;99.90
4520;DHT22;2272;49.226;8.108;2022-10-31T08:08:19;13.30;99.90
4520;DHT22;2272;49.226;8.108;2022-10-31T08:10:46;13.40;99.90
4520;DHT22;2272;49.226;8.108;2022-10-31T08:13:13;13.70;99.90
4520;DHT22;2272;49.226;8.108;2022-10-31T08:15:40;13.90;99.90
4520;DHT22;2272;49.226;8.108;2022-10-31T08:18:12;14.10;99.90
4520;DHT22;2272;49.226;8.108;2022-10-31T08:20:41;14.10;99.90
4520;DHT22;2272;49.226;8.108;2022-10-31T08:23:09;14.20;99.90
4520;DHT22;2272;49.226;8.108;2022-10-31T08:25:37;14.20;99.90
4520;DHT22;2272;49.226;8.108;2022-10-31T08:28:04;14.30;99.90
4520;DHT22;2272;49.226;8.108;2022-10-31T08:30:33;14.40;99.90
4520;DHT22;2272;49.226;8.108;2022-10-31T08:33:01;14.50;99.90
4520;DHT22;2272;49.226;8.108;2022-10-31T08:35:28;14.60;99.90
4520;DHT22;2272;49.226;8.108;2022-10-31T08:37:57;14.80;99.90
4520;DHT22;2272;49.226;8.108;2022-10-31T08:40:25;15.00;99.90
4520;DHT22;2272;49.226;8.108;2022-10-31T08:42:57;15.20;99.90
4520;DHT22;2272;49.226;8.108;2022-10-31T08:45:24;15.30;99.90
4520;DHT22;2272;49.226;8.108;2022-10-31T08:47:51;15.40;99.90
4520;DHT22;2272;49.226;8.108;2022-10-31T08:50:18;15.50;99.90
4520;DHT22;2272;49.226;8.108;2022-10-31T08:52:44;15.50;99.90
4520;DHT22;2272;49.226;8.108;2022-10-31T08:55:13;15.50;99.90
4520;DHT22;2272;49.226;8.108;2022-10-31T08:57:39;15.60;99.90
4520;DHT22;2272;49.226;8.108;2022-10-31T09:00:07;15.60;99.90
4520;DHT22;2272;49.226;8.108;2022-10-31T09:02:34;15.80;99.90
4520;DHT22;2272;49.226;8.108;2022-10-31T09:05:02;16.00;99.90
4520;DHT22;2272;49.226;8.108;2022-10-31T09:07:29;16.10;99.90
4520;DHT22;2272;49.226;8.108;2022-10-31T09:09:56;16.20;99.90
4520;DHT22;2272;49.226;8.108;2022-10-31T09:12:24;16.30;99.90
4520;DHT22;2272;49.226;8.108;2022-10-31T09:14:51;16.40;99.90
4520;DHT22;2272;49.226;8.108;2022-10-31T09:17:17;16.50;99.90
4520;DHT22;2272;49.226;8.108;2022-10-31T09:19:50;16.60;99.90
4520;DHT22;2272;49.226;8.108;2022-10-31T09:22:17;16.80;99.90
4520;DHT22;2272;49.226;8.108;2022-10-31T09:24:44;16.80;99.90
4520;DHT22;2272;49.226;8.108;2022-10-31T09:27:10;16.90;99.90
4520;DHT22;2272;49.226;8.108;2022-10-31T09:29:38;16.90;99.90
4520;DHT22;2272;49.226;8.108;2022-10-31T09:32:05;17.00;99.90
4520;DHT22;2272;49.226;8.108;2022-10-31T09:34:32;17.10;99.90
4520;DHT22;2272;49.226;8.108;2022-10-31T09:36:58;17.00;99.90
4520;DHT22;2272;49.226;8.108;2022-10-31T09:39:25;16.90;99.90
4520;DHT22;2272;49.226;8.108;2022-10-31T09:42:09;16.80;99.90
4520;DHT22;2272;49.226;8.108;2022-10-31T09:44:48;16.90;99.90
4520;DHT22;2272;49.226;8.108;2022-10-31T09:47:24;17.00;99.90
4520;DHT22;2272;49.226;8.108;2022-10-31T09:50:02;17.00;99.90
4520;DHT22;2272;49.226;8.108;2022-10-31T09:52:34;17.20;99.90
4520;DHT22;2272;49.226;8.108;2022-10-31T09:55:08;17.40;99.90
4520;DHT22;2272;49.226;8.108;2022-10-31T09:57:37;17.50;99.90
4520;DHT22;2272;49.226;8.108;2022-10-31T10:00:06;17.70;99.90
4520;DHT22;2272;49.226;8.108;2022-10-31T10:02:38;17.70;99.90
4520;DHT22;2272;49.226;8.108;2022-10-31T10:05:10;17.80;99.90
4520;DHT22;2272;49.226;8.108;2022-10-31T10:07:43;18.00;99.90
4520;DHT22;2272;49.226;8.108;2022-10-31T10:10:15;18.00;99.90
4520;DHT22;2272;49.226;8.108;2022-10-31T10:12:55;18.10;99.90
4520;DHT22;2272;49.226;8.108;2022-10-31T10:15:39;18.10;99.90
4520;DHT22;2272;49.226;8.108;2022-10-31T10:18:24;18.20;99.90
4520;DHT22;2272;49.226;8.108;2022-10-31T10:20:59;18.30;99.90
4520;DHT22;2272;49.226;8.108;2022-10-31T10:23:36;18.40;99.90
4520;DHT22;2272;49.226;8.108;2022-10-31T10:26:15;18.30;99.90
4520;DHT22;2272;49.226;8.108;2022-10-31T10:28:45;18.50;99.90
4520;DHT22;2272;49.226;8.108;2022-10-31T10:31:16;18.60;99.90
4520;DHT22;2272;49.226;8.108;2022-10-31T10:33:47;18.70;99.90
4520;DHT22;2272;49.226;8.108;2022-10-31T10:36:21;18.70;99.90
4520;DHT22;2272;49.226;8.108;2022-10-31T10:38:51;18.70;99.90
4520;DHT22;2272;49.226;8.108;2022-10-31T10:41:20;18.70;99.90
4520;DHT22;2272;49.226;8.108;2022-10-31T10:43:49;18.70;99.90
4520;DHT22;2272;49.226;8.108;2022-10-31T10:46:24;18.80;99.90
4520;DHT22;2272;49.226;8.108;2022-10-31T10:49:16;18.80;99.90
4520;DHT22;2272;49.226;8.108;2022-10-31T10:51:45;18.60;99.90
4520;DHT22;2272;49.226;8.108;2022-10-31T10:54:38;18.70;99.90
4520;DHT22;2272;49.226;8.108;2022-10-31T10:57:15;18.90;99.90
4520;DHT22;2272;49.226;8.108;2022-10-31T10:59:45;19.10;99.90
4520;DHT22;2272;49.226;8.108;2022-10-31T11:02:18;19.30;99.90
4520;DHT22;2272;49.226;8.108;2022-10-31T11:04:47;19.30;99.90
4520;DHT22;2272;49.226;8.108;2022-10-31T11:07:15;19.20;99.90
4520;DHT22;2272;49.226;8.108;2022-10-31T11:09:42;19.30;99.90
4520;DHT22;2272;49.226;8.108;2022-10-31T11:12:10;19.30;99.90
4520;DHT22;2272;49.226;8.108;2022-10-31T11:14:44;19.20;99.90
4520;DHT22;2272;49.226;8.108;2022-10-31T11:17:22;19.10;99.90
4520;DHT22;2272;49.226;8.108;2022-10-31T11:20:03;19.10;99.90
4520;DHT22;2272;49.226;8.108;2022-10-31T11:22:30;19.20;99.90
4520;DHT22;2272;49.226;8.108;2022-10-31T11:24:57;19.10;99.90
4520;DHT22;2272;49.226;8.108;2022-10-31T11:27:25;19.10;99.90
4520;DHT22;2272;49.226;8.108;2022-10-31T11:29:52;19.10;99.90
4520;DHT22;2272;49.226;8.108;2022-10-31T11:32:22;19.10;99.90
4520;DHT22;2272;49.226;8.108;2022-10-31T11:34:52;19.10;99.90
4520;DHT22;2272;49.226;8.108;2022-10-31T11:37:22;19.00;99.90
4520;DHT22;2272;49.226;8.108;2022-10-31T11:39:52;18.90;99.90
4520;DHT22;2272;49.226;8.108;2022-10-31T11:42:22;18.90;99.90
4520;DHT22;2272;49.226;8.108;2022-10-31T11:44:50;18.90;99.90
4520;DHT22;2272;49.226;8.108;2022-10-31T11:47:23;18.90;99.90
4520;DHT22;2272;49.226;8.108;2022-10-31T11:49:52;19.00;99.90
4520;DHT22;2272;49.226;8.108;2022-10-31T11:52:20;19.00;99.90
4520;DHT22;2272;49.226;8.108;2022-10-31T11:54:50;18.90;99.90
4520;DHT22;2272;49.226;8.108;2022-10-31T11:57:27;19.00;99.90
4520;DHT22;2272;49.226;8.108;2022-10-31T11:59:56;19.10;99.90
4520;DHT22;2272;49.226;8.108;2022-10-31T12:02:25;19.20;99.90
4520;DHT22;2272;49.226;8.108;2022-10-31T12:04:59;19.30;99.90
4520;DHT22;2272;49.226;8.108;2022-10-31T12:07:27;19.40;99.90
4520;DHT22;2272;49.226;8.108;2022-10-31T12:09:54;19.30;99.90
4520;DHT22;2272;49.226;8.108;2022-10-31T12:12:44;19.30;99.90
4520;DHT22;2272;49.226;8.108;2022-10-31T12:15:27;19.30;99.90
4520;DHT22;2272;49.226;8.108;2022-10-31T12:18:11;19.30;99.90
4520;DHT22;2272;49.226;8.108;2022-10-31T12:20:47;19.20;99.90
4520;DHT22;2272;49.226;8.108;2022-10-31T12:23:22;19.30;99.90
4520;DHT22;2272;49.226;8.108;2022-10-31T12:26:05;19.30;99.90
4520;DHT22;2272;49.226;8.108;2022-10-31T12:28:51;19.40;99.90
4520;DHT22;2272;49.226;8.108;2022-10-31T12:31:34;19.20;99.90
4520;DHT22;2272;49.226;8.108;2022-10-31T12:34:37;19.20;99.90
4520;DHT22;2272;49.226;8.108;2022-10-31T12:37:14;19.10;99.90
4520;DHT22;2272;49.226;8.108;2022-10-31T12:39:50;19.20;99.90
4520;DHT22;2272;49.226;8.108;2022-10-31T12:42:28;19.10;99.90
4520;DHT22;2272;49.226;8.108;2022-10-31T12:45:18;19.10;99.90
4520;DHT22;2272;49.226;8.108;2022-10-31T12:48:06;19.00;99.90
4520;DHT22;2272;49.226;8.108;2022-10-31T12:50:50;18.90;99.90
4520;DHT22;2272;49.226;8.108;2022-10-31T12:53:40;18.80;99.90
4520;DHT22;2272;49.226;8.108;2022-10-31T12:56:26;18.70;99.90
4520;DHT22;2272;49.226;8.108;2022-10-31T12:58:59;18.60;99.90
4520;DHT22;2272;49.226;8.108;2022-10-31T13:01:30;18.60;99.90
4520;DHT22;2272;49.226;8.108;2022-10-31T13:04:05;18.70;99.90
4520;DHT22;2272;49.226;8.108;2022-10-31T13:06:42;19.00;99.90
4520;DHT22;2272;49.226;8.108;2022-10-31T13:09:11;19.40;99.90
4520;DHT22;2272;49.226;8.108;2022-10-31T13:11:44;19.80;99.90
4520;DHT22;2272;49.226;8.108;2022-10-31T13:14:17;20.10;99.90
4520;DHT22;2272;49.226;8.108;2022-10-31T13:16:46;20.50;99.90
4520;DHT22;2272;49.226;8.108;2022-10-31T13:19:17;20.70;99.90
4520;DHT22;2272;49.226;8.108;2022-10-31T13:21:53;20.90;99.90
4520;DHT22;2272;49.226;8.108;2022-10-31T13:24:22;21.10;99.90
4520;DHT22;2272;49.226;8.108;2022-10-31T13:26:52;21.30;99.90
4520;DHT22;2272;49.226;8.108;2022-10-31T13:29:27;21.30;99.90
4520;DHT22;2272;49.226;8.108;2022-10-31T13:31:56;21.20;99.90
4520;DHT22;2272;49.226;8.108;2022-10-31T13:34:28;20.90;99.90
4520;DHT22;2272;49.226;8.108;2022-10-31T13:37:04;20.60;99.90
4520;DHT22;2272;49.226;8.108;2022-10-31T13:39:44;20.40;99.90
4520;DHT22;2272;49.226;8.108;2022-10-31T13:42:18;20.10;99.90
4520;DHT22;2272;49.226;8.108;2022-10-31T13:44:46;19.80;99.90
4520;DHT22;2272;49.226;8.108;2022-10-31T13:47:25;19.70;99.90
4520;DHT22;2272;49.226;8.108;2022-10-31T13:50:04;19.40;99.90
4520;DHT22;2272;49.226;8.108;2022-10-31T13:52:33;19.20;99.90
4520;DHT22;2272;49.226;8.108;2022-10-31T13:54:59;18.80;99.90
4520;DHT22;2272;49.226;8.108;2022-10-31T13:57:31;18.50;99.90
4520;DHT22;2272;49.226;8.108;2022-10-31T14:00:03;18.20;99.90
4520;DHT22;2272;49.226;8.108;2022-10-31T14:02:31;17.90;99.90
4520;DHT22;2272;49.226;8.108;2022-10-31T14:05:00;17.70;99.90
4520;DHT22;2272;49.226;8.108;2022-10-31T14:07:28;17.70;99.90
4520;DHT22;2272;49.226;8.108;2022-10-31T14:10:00;17.70;99.90
4520;DHT22;2272;49.226;8.108;2022-10-31T14:12:31;17.70;99.90
4520;DHT22;2272;49.226;8.108;2022-10-31T14:15:04;17.70;99.90
4520;DHT22;2272;49.226;8.108;2022-10-31T14:17:39;17.80;99.90
4520;DHT22;2272;49.226;8.108;2022-10-31T14:20:37;17.90;99.90
4520;DHT22;2272;49.226;8.108;2022-10-31T14:26:06;17.80;99.90
4520;DHT22;2272;49.226;8.108;2022-10-31T14:28:36;17.70;99.90
4520;DHT22;2272;49.226;8.108;2022-10-31T14:31:29;17.70;99.90
4520;DHT22;2272;49.226;8.108;2022-10-31T14:33:57;17.60;99.90
4520;DHT22;2272;49.226;8.108;2022-10-31T14:36:29;17.50;99.90
4520;DHT22;2272;49.226;8.108;2022-10-31T14:39:03;17.40;99.90
4520;DHT22;2272;49.226;8.108;2022-10-31T14:41:50;17.40;99.90
4520;DHT22;2272;49.226;8.108;2022-10-31T14:44:41;17.40;99.90
4520;DHT22;2272;49.226;8.108;2022-10-31T14:47:19;17.30;99.90
4520;DHT22;2272;49.226;8.108;2022-10-31T14:50:05;17.20;99.90
4520;DHT22;2272;49.226;8.108;2022-10-31T14:52:36;17.00;99.90
4520;DHT22;2272;49.226;8.108;2022-10-31T14:55:06;16.90;99.90
4520;DHT22;2272;49.226;8.108;2022-10-31T14:57:36;16.70;99.90
4520;DHT22;2272;49.226;8.108;2022-10-31T15:00:06;16.60;99.90
4520;DHT22;2272;49.226;8.108;2022-10-31T15:02:37;16.50;99.90
4520;DHT22;2272;49.226;8.108;2022-10-31T15:05:08;16.40;99.90
4520;DHT22;2272;49.226;8.108;2022-10-31T15:07:35;16.40;99.90
4520;DHT22;2272;49.226;8.108;2022-10-31T15:10:15;16.40;99.90
4520;DHT22;2272;49.226;8.108;2022-10-31T15:12:46;16.40;99.90
4520;DHT22;2272;49.226;8.108;2022-10-31T15:15:14;16.40;99.90
4520;DHT22;2272;49.226;8.108;2022-10-31T15:17:44;16.50;99.90
4520;DHT22;2272;49.226;8.108;2022-10-31T15:20:17;16.50;99.90
4520;DHT22;2272;49.226;8.108;2022-10-31T15:22:46;16.50;99.90
4520;DHT22;2272;49.226;8.108;2022-10-31T15:25:17;16.40;99.90
4520;DHT22;2272;49.226;8.108;2022-10-31T15:27:46;16.30;99.90
4520;DHT22;2272;49.226;8.108;2022-10-31T15:30:19;16.20;99.90
4520;DHT22;2272;49.226;8.108;2022-10-31T15:32:46;16.10;99.90
4520;DHT22;2272;49.226;8.108;2022-10-31T15:35:20;16.00;99.90
4520;DHT22;2272;49.226;8.108;2022-10-31T15:37:48;15.80;99.90
4520;DHT22;2272;49.226;8.108;2022-10-31T15:40:16;15.60;99.90
4520;DHT22;2272;49.226;8.108;2022-10-31T15:42:48;15.40;99.90
4520;DHT22;2272;49.226;8.108;2022-10-31T15:45:18;15.30;99.90
4520;DHT22;2272;49.226;8.108;2022-10-31T15:47:49;15.10;99.90
4520;DHT22;2272;49.226;8.108;2022-10-31T15:50:22;15.00;99.90
4520;DHT22;2272;49.226;8.108;2022-10-31T15:52:50;14.80;99.90
4520;DHT22;2272;49.226;8.108;2022-10-31T15:55:19;14.70;99.90
4520;DHT22;2272;49.226;8.108;2022-10-31T15:57:53;14.60;99.90
4520;DHT22;2272;49.226;8.108;2022-10-31T16:00:25;14.50;99.90
4520;DHT22;2272;49.226;8.108;2022-10-31T16:03:03;14.40;99.90
4520;DHT22;2272;49.226;8.108;2022-10-31T16:05:36;14.40;99.90
4520;DHT22;2272;49.226;8.108;2022-10-31T16:08:03;14.40;99.90
4520;DHT22;2272;49.226;8.108;2022-10-31T16:10:33;14.40;99.90
4520;DHT22;2272;49.226;8.108;2022-10-31T16:13:02;14.30;99.90
4520;DHT22;2272;49.226;8.108;2022-10-31T16:15:29;14.30;99.90
4520;DHT22;2272;49.226;8.108;2022-10-31T16:17:57;14.30;99.90
4520;DHT22;2272;49.226;8.108;2022-10-31T16:20:26;14.30;99.90
4520;DHT22;2272;49.226;8.108;2022-10-31T16:22:55;14.40;99.90
4520;DHT22;2272;49.226;8.108;2022-10-31T16:25:26;14.40;99.90
4520;DHT22;2272;49.226;8.108;2022-10-31T16:27:55;14.30;99.90